»·PEaware :: N335LP L88-KSBP

N335LP :: L88-KSBP

FLIGHT INFORMATION

Flight Status: Arrived
Operator: Privately registered:
United States
More flights under this callsign
Pilot: Andrew S. (42420)
Aircraft: DIAMOND DA-42 TWINSTAR
(DA42)
More flights by this aircraft type
Origin: L88 New Cuyama
United States
Destination: KSBP San Luis Co Regl
United States
More flights between these airports :: More routes between these airports
Route:
File this flight plan on PilotEdge
Remarks:
Altitude:
(Current/Filed)
6,500ft
Speed:
(Current/Filed)
120kts
Departed: 30-Oct-23 08:01 PM
Arrived: 30-Oct-23 08:29 PM
Distance/Time
Traveled:
50nm/0:28
Distance/Time
To Go:
Arrived

Flight Plot

Page will automatically refresh every two minutes.


Map Options




Map Legend


Flown Route
Filed Route
Departure Airport
Arrival Airport
Navaid (VOR, NDB)
Fix

Horizontal Profiles

Position Reports

Time Latitude Longitude Heading Altitude Ground
Speed
30-Oct-23 19:36 34.942856 -119.690285 204 2155ft 0kts
30-Oct-23 19:37 34.942856 -119.690285 204 2155ft 0kts
30-Oct-23 19:38 34.942856 -119.690285 204 2155ft 0kts
30-Oct-23 19:39 34.942856 -119.690285 204 2155ft 0kts
30-Oct-23 19:40 34.942856 -119.690285 204 2155ft 0kts
30-Oct-23 19:41 34.942856 -119.690285 204 2155ft 0kts
30-Oct-23 19:42 34.942856 -119.690285 204 2155ft 0kts
30-Oct-23 19:43 34.942856 -119.690285 204 2155ft 0kts
30-Oct-23 19:44 34.942856 -119.690285 204 2155ft 0kts
30-Oct-23 19:45 34.942856 -119.690285 204 2155ft 0kts
30-Oct-23 19:46 34.942856 -119.690285 204 2155ft 0kts
30-Oct-23 19:47 34.942856 -119.690285 204 2155ft 0kts
30-Oct-23 19:48 34.942856 -119.690285 204 2155ft 0kts
30-Oct-23 19:49 34.942856 -119.690285 204 2155ft 0kts
30-Oct-23 19:53 34.942856 -119.690285 204 2155ft 0kts
30-Oct-23 19:54 34.942856 -119.690285 204 2155ft 0kts
30-Oct-23 19:55 34.942856 -119.690285 204 2155ft 0kts
30-Oct-23 19:56 34.942856 -119.690285 204 2155ft 0kts
30-Oct-23 19:57 34.942856 -119.690285 204 2155ft 0kts
30-Oct-23 19:58 34.942856 -119.690285 204 2155ft 0kts
30-Oct-23 19:59 34.942545 -119.690859 206 2153ft 8kts
30-Oct-23 20:00 34.936309 -119.676397 115 2524ft 86kts
30-Oct-23 20:01 34.918950 -119.674906 300 3559ft 121kts
30-Oct-23 20:02 34.934756 -119.712405 304 4758ft 118kts
30-Oct-23 20:03 34.953786 -119.747605 300 5755ft 124kts
30-Oct-23 20:04 34.969609 -119.785718 299 6571ft 131kts
30-Oct-23 20:05 34.985220 -119.828888 298 6501ft 137kts
30-Oct-23 20:06 34.999768 -119.871735 295 6433ft 134kts
30-Oct-23 20:07 35.012094 -119.912817 292 6467ft 129kts
30-Oct-23 20:08 35.026483 -119.954494 297 6542ft 132kts
30-Oct-23 20:10 35.040117 -119.996791 291 6614ft 135kts
30-Oct-23 20:11 35.053685 -120.040163 287 6559ft 140kts
30-Oct-23 20:12 35.066034 -120.085022 281 6412ft 140kts
30-Oct-23 20:13 35.079793 -120.127467 293 6413ft 134kts
30-Oct-23 20:14 35.093216 -120.168934 289 6502ft 129kts
30-Oct-23 20:15 35.105980 -120.210831 292 6448ft 133kts
30-Oct-23 20:16 35.119170 -120.253035 286 6441ft 134kts
30-Oct-23 20:17 35.130389 -120.295634 290 6437ft 136kts
30-Oct-23 20:18 35.144406 -120.340879 295 6532ft 148kts
30-Oct-23 20:19 35.159912 -120.388322 292 6513ft 150kts
30-Oct-23 20:20 35.173876 -120.436343 295 6515ft 150kts
30-Oct-23 20:21 35.189658 -120.483699 296 6501ft 146kts
30-Oct-23 20:22 35.203201 -120.529134 281 5456ft 138kts
30-Oct-23 20:23 35.204765 -120.574541 287 4173ft 138kts
30-Oct-23 20:24 35.223170 -120.615523 313 2787ft 135kts
30-Oct-23 20:25 35.223758 -120.596854 179 1703ft 109kts
30-Oct-23 20:26 35.218685 -120.589867 272 1571ft 137kts
30-Oct-23 20:27 35.226648 -120.622841 305 882ft 84kts
30-Oct-23 20:28 35.238869 -120.643716 309 178ft 46kts
30-Oct-23 20:29 35.241497 -120.646736 67 163ft 0kts
30-Oct-23 20:30 35.241264 -120.646004 125 166ft 14kts
30-Oct-23 20:31 35.239755 -120.642435 349 181ft 5kts

Navigation Log

Ident Type
Flight plan parsing failed, navigation log unavailable